sensor_id;sensor_type;location;lat;lon;timestamp;P1;durP1;ratioP1;P2;durP2;ratioP2
20832;SDS011;56075;51.264;7.150;2023-09-18T00:01:50;12.88;;;5.00;;
20832;SDS011;56075;51.264;7.150;2023-09-18T00:11:58;10.73;;;5.22;;
20832;SDS011;56075;51.264;7.150;2023-09-18T00:18:51;10.82;;;5.60;;
20832;SDS011;56075;51.264;7.150;2023-09-18T00:32:50;10.43;;;5.45;;
20832;SDS011;56075;51.264;7.150;2023-09-18T00:36:25;16.88;;;5.28;;
20832;SDS011;56075;51.264;7.150;2023-09-18T00:46:35;7.25;;;4.80;;
20832;SDS011;56075;51.264;7.150;2023-09-18T00:57:59;10.88;;;4.82;;
20832;SDS011;56075;51.264;7.150;2023-09-18T01:01:17;8.52;;;4.25;;
20832;SDS011;56075;51.264;7.150;2023-09-18T01:08:46;12.50;;;4.10;;
20832;SDS011;56075;51.264;7.150;2023-09-18T01:40:20;9.85;;;3.67;;
20832;SDS011;56075;51.264;7.150;2023-09-18T01:47:45;9.88;;;3.58;;
20832;SDS011;56075;51.264;7.150;2023-09-18T01:54:31;8.35;;;3.65;;
20832;SDS011;56075;51.264;7.150;2023-09-18T01:58:32;9.40;;;3.17;;
20832;SDS011;56075;51.264;7.150;2023-09-18T02:01:59;8.25;;;3.38;;
20832;SDS011;56075;51.264;7.150;2023-09-18T02:30:43;6.25;;;3.08;;
20832;SDS011;56075;51.264;7.150;2023-09-18T02:56:15;8.65;;;3.10;;
20832;SDS011;56075;51.264;7.150;2023-09-18T03:00:19;9.50;;;3.30;;
20832;SDS011;56075;51.264;7.150;2023-09-18T03:03:52;10.43;;;3.08;;
20832;SDS011;56075;51.264;7.150;2023-09-18T03:07:33;9.52;;;3.33;;
20832;SDS011;56075;51.264;7.150;2023-09-18T03:10:45;10.30;;;3.30;;
20832;SDS011;56075;51.264;7.150;2023-09-18T03:13:42;10.43;;;2.85;;
20832;SDS011;56075;51.264;7.150;2023-09-18T03:16:32;8.35;;;2.95;;
20832;SDS011;56075;51.264;7.150;2023-09-18T03:20:13;9.43;;;3.35;;
20832;SDS011;56075;51.264;7.150;2023-09-18T03:26:28;6.10;;;3.13;;
20832;SDS011;56075;51.264;7.150;2023-09-18T03:29:11;10.20;;;3.00;;
20832;SDS011;56075;51.264;7.150;2023-09-18T03:31:54;7.28;;;3.08;;
20832;SDS011;56075;51.264;7.150;2023-09-18T03:34:32;9.40;;;3.33;;
20832;SDS011;56075;51.264;7.150;2023-09-18T03:37:09;9.27;;;3.30;;
20832;SDS011;56075;51.264;7.150;2023-09-18T03:39:52;8.70;;;3.60;;
20832;SDS011;56075;51.264;7.150;2023-09-18T03:42:26;8.73;;;3.28;;
20832;SDS011;56075;51.264;7.150;2023-09-18T03:44:58;9.82;;;3.70;;
20832;SDS011;56075;51.264;7.150;2023-09-18T03:47:48;13.23;;;3.50;;
20832;SDS011;56075;51.264;7.150;2023-09-18T03:50:24;8.50;;;3.40;;
20832;SDS011;56075;51.264;7.150;2023-09-18T03:53:06;8.38;;;3.47;;
20832;SDS011;56075;51.264;7.150;2023-09-18T03:55:41;12.05;;;3.33;;
20832;SDS011;56075;51.264;7.150;2023-09-18T03:59:18;10.15;;;3.70;;
20832;SDS011;56075;51.264;7.150;2023-09-18T04:09:26;8.32;;;3.30;;
20832;SDS011;56075;51.264;7.150;2023-09-18T04:12:15;13.98;;;3.50;;
20832;SDS011;56075;51.264;7.150;2023-09-18T04:14:54;12.35;;;3.60;;
20832;SDS011;56075;51.264;7.150;2023-09-18T04:17:51;12.13;;;3.50;;
20832;SDS011;56075;51.264;7.150;2023-09-18T04:20:27;11.18;;;3.47;;
20832;SDS011;56075;51.264;7.150;2023-09-18T04:23:27;10.57;;;3.65;;
20832;SDS011;56075;51.264;7.150;2023-09-18T04:34:33;12.15;;;3.60;;
20832;SDS011;56075;51.264;7.150;2023-09-18T04:37:42;10.77;;;3.30;;
20832;SDS011;56075;51.264;7.150;2023-09-18T04:47:42;8.68;;;3.45;;
20832;SDS011;56075;51.264;7.150;2023-09-18T04:54:24;11.82;;;3.58;;
20832;SDS011;56075;51.264;7.150;2023-09-18T04:57:00;15.77;;;3.75;;
20832;SDS011;56075;51.264;7.150;2023-09-18T04:59:32;9.50;;;3.55;;
20832;SDS011;56075;51.264;7.150;2023-09-18T05:02:17;13.27;;;3.25;;
20832;SDS011;56075;51.264;7.150;2023-09-18T05:04:51;9.57;;;3.80;;
20832;SDS011;56075;51.264;7.150;2023-09-18T05:07:33;10.27;;;3.30;;
20832;SDS011;56075;51.264;7.150;2023-09-18T05:10:04;8.55;;;3.70;;
20832;SDS011;56075;51.264;7.150;2023-09-18T05:13:08;12.68;;;3.08;;
20832;SDS011;56075;51.264;7.150;2023-09-18T05:16:17;13.57;;;3.40;;
20832;SDS011;56075;51.264;7.150;2023-09-18T05:18:49;13.23;;;3.15;;
20832;SDS011;56075;51.264;7.150;2023-09-18T05:24:43;10.77;;;3.47;;
20832;SDS011;56075;51.264;7.150;2023-09-18T05:27:18;12.50;;;3.80;;
20832;SDS011;56075;51.264;7.150;2023-09-18T05:30:08;11.32;;;3.20;;
20832;SDS011;56075;51.264;7.150;2023-09-18T05:32:41;11.68;;;3.55;;
20832;SDS011;56075;51.264;7.150;2023-09-18T05:35:41;11.65;;;3.53;;
20832;SDS011;56075;51.264;7.150;2023-09-18T05:38:27;15.38;;;3.60;;
20832;SDS011;56075;51.264;7.150;2023-09-18T05:41:03;9.88;;;3.30;;
20832;SDS011;56075;51.264;7.150;2023-09-18T05:43:45;15.30;;;3.35;;
20832;SDS011;56075;51.264;7.150;2023-09-18T05:46:17;12.93;;;3.45;;
20832;SDS011;56075;51.264;7.150;2023-09-18T05:48:59;15.75;;;3.38;;
20832;SDS011;56075;51.264;7.150;2023-09-18T05:51:34;16.80;;;3.08;;
20832;SDS011;56075;51.264;7.150;2023-09-18T05:54:42;14.55;;;3.30;;
20832;SDS011;56075;51.264;7.150;2023-09-18T05:57:30;10.85;;;3.08;;
20832;SDS011;56075;51.264;7.150;2023-09-18T06:00:39;8.98;;;3.20;;
20832;SDS011;56075;51.264;7.150;2023-09-18T06:03:55;10.73;;;3.40;;
20832;SDS011;56075;51.264;7.150;2023-09-18T06:06:30;14.13;;;3.38;;
20832;SDS011;56075;51.264;7.150;2023-09-18T06:09:26;15.48;;;3.78;;
20832;SDS011;56075;51.264;7.150;2023-09-18T06:12:01;13.63;;;3.70;;
20832;SDS011;56075;51.264;7.150;2023-09-18T06:14:44;7.63;;;3.00;;
20832;SDS011;56075;51.264;7.150;2023-09-18T06:17:19;10.10;;;2.90;;
20832;SDS011;56075;51.264;7.150;2023-09-18T06:19:59;10.70;;;2.92;;
20832;SDS011;56075;51.264;7.150;2023-09-18T06:22:39;12.25;;;3.13;;
20832;SDS011;56075;51.264;7.150;2023-09-18T06:25:56;9.80;;;3.35;;
20832;SDS011;56075;51.264;7.150;2023-09-18T06:28:32;13.35;;;3.20;;
20832;SDS011;56075;51.264;7.150;2023-09-18T06:31:26;9.52;;;2.80;;
20832;SDS011;56075;51.264;7.150;2023-09-18T06:34:12;16.92;;;3.40;;
20832;SDS011;56075;51.264;7.150;2023-09-18T06:40:13;8.80;;;2.83;;
20832;SDS011;56075;51.264;7.150;2023-09-18T06:42:48;11.27;;;2.75;;
20832;SDS011;56075;51.264;7.150;2023-09-18T06:45:25;10.77;;;2.60;;
20832;SDS011;56075;51.264;7.150;2023-09-18T06:48:02;11.20;;;2.92;;
20832;SDS011;56075;51.264;7.150;2023-09-18T06:50:37;8.77;;;2.92;;
20832;SDS011;56075;51.264;7.150;2023-09-18T06:53:15;13.27;;;2.42;;
20832;SDS011;56075;51.264;7.150;2023-09-18T06:56:08;5.35;;;2.40;;
20832;SDS011;56075;51.264;7.150;2023-09-18T06:58:42;7.50;;;2.30;;
20832;SDS011;56075;51.264;7.150;2023-09-18T07:05:21;8.98;;;2.72;;
20832;SDS011;56075;51.264;7.150;2023-09-18T07:09:20;7.82;;;2.20;;
20832;SDS011;56075;51.264;7.150;2023-09-18T07:11:57;9.57;;;2.10;;
20832;SDS011;56075;51.264;7.150;2023-09-18T07:14:38;9.20;;;2.35;;
20832;SDS011;56075;51.264;7.150;2023-09-18T07:17:10;6.47;;;2.45;;
20832;SDS011;56075;51.264;7.150;2023-09-18T07:19:41;7.40;;;2.45;;
20832;SDS011;56075;51.264;7.150;2023-09-18T07:22:13;7.60;;;2.08;;
20832;SDS011;56075;51.264;7.150;2023-09-18T07:24:44;9.68;;;2.10;;
20832;SDS011;56075;51.264;7.150;2023-09-18T07:27:17;8.05;;;2.30;;
20832;SDS011;56075;51.264;7.150;2023-09-18T07:29:48;6.65;;;2.00;;
20832;SDS011;56075;51.264;7.150;2023-09-18T07:32:38;6.20;;;2.17;;
20832;SDS011;56075;51.264;7.150;2023-09-18T07:35:16;6.25;;;2.03;;
20832;SDS011;56075;51.264;7.150;2023-09-18T07:38:16;8.15;;;2.15;;
20832;SDS011;56075;51.264;7.150;2023-09-18T07:40:54;7.43;;;2.17;;
20832;SDS011;56075;51.264;7.150;2023-09-18T07:44:11;9.52;;;2.13;;
20832;SDS011;56075;51.264;7.150;2023-09-18T07:46:43;9.45;;;2.00;;
20832;SDS011;56075;51.264;7.150;2023-09-18T07:49:15;7.18;;;1.90;;
20832;SDS011;56075;51.264;7.150;2023-09-18T07:51:52;6.70;;;2.10;;
20832;SDS011;56075;51.264;7.150;2023-09-18T07:54:23;8.70;;;2.15;;
20832;SDS011;56075;51.264;7.150;2023-09-18T07:56:55;9.10;;;1.85;;
20832;SDS011;56075;51.264;7.150;2023-09-18T07:59:32;7.80;;;1.63;;
20832;SDS011;56075;51.264;7.150;2023-09-18T08:02:06;7.35;;;1.90;;
20832;SDS011;56075;51.264;7.150;2023-09-18T08:04:56;6.00;;;2.00;;
20832;SDS011;56075;51.264;7.150;2023-09-18T08:07:54;4.65;;;1.63;;
20832;SDS011;56075;51.264;7.150;2023-09-18T08:13:26;10.30;;;2.10;;
20832;SDS011;56075;51.264;7.150;2023-09-18T08:16:00;5.43;;;1.80;;
20832;SDS011;56075;51.264;7.150;2023-09-18T08:18:32;6.88;;;1.85;;
20832;SDS011;56075;51.264;7.150;2023-09-18T08:21:14;6.70;;;1.60;;
20832;SDS011;56075;51.264;7.150;2023-09-18T08:27:24;5.05;;;1.70;;
20832;SDS011;56075;51.264;7.150;2023-09-18T08:29:55;4.32;;;1.63;;
20832;SDS011;56075;51.264;7.150;2023-09-18T08:32:37;7.50;;;1.80;;
20832;SDS011;56075;51.264;7.150;2023-09-18T08:35:19;5.70;;;1.58;;
20832;SDS011;56075;51.264;7.150;2023-09-18T08:37:53;5.25;;;1.67;;
20832;SDS011;56075;51.264;7.150;2023-09-18T08:41:18;5.82;;;1.52;;
20832;SDS011;56075;51.264;7.150;2023-09-18T08:43:52;8.50;;;1.77;;
20832;SDS011;56075;51.264;7.150;2023-09-18T08:46:30;6.07;;;1.60;;
20832;SDS011;56075;51.264;7.150;2023-09-18T08:49:02;6.38;;;1.50;;
20832;SDS011;56075;51.264;7.150;2023-09-18T08:51:35;6.60;;;1.73;;
20832;SDS011;56075;51.264;7.150;2023-09-18T08:54:06;5.35;;;2.10;;
20832;SDS011;56075;51.264;7.150;2023-09-18T08:56:38;7.07;;;1.88;;
20832;SDS011;56075;51.264;7.150;2023-09-18T08:59:10;7.03;;;1.63;;
20832;SDS011;56075;51.264;7.150;2023-09-18T09:01:42;6.35;;;1.80;;
20832;SDS011;56075;51.264;7.150;2023-09-18T09:04:14;3.92;;;1.50;;
20832;SDS011;56075;51.264;7.150;2023-09-18T09:06:45;7.20;;;1.70;;
20832;SDS011;56075;51.264;7.150;2023-09-18T09:09:16;4.93;;;1.58;;
20832;SDS011;56075;51.264;7.150;2023-09-18T09:11:50;4.82;;;1.63;;
20832;SDS011;56075;51.264;7.150;2023-09-18T09:14:21;6.75;;;1.45;;
20832;SDS011;56075;51.264;7.150;2023-09-18T09:16:59;8.43;;;1.50;;
20832;SDS011;56075;51.264;7.150;2023-09-18T09:19:34;5.13;;;1.60;;
20832;SDS011;56075;51.264;7.150;2023-09-18T09:22:19;4.00;;;1.60;;
20832;SDS011;56075;51.264;7.150;2023-09-18T09:24:51;8.32;;;1.50;;
20832;SDS011;56075;51.264;7.150;2023-09-18T09:27:23;5.80;;;1.48;;
20832;SDS011;56075;51.264;7.150;2023-09-18T09:30:00;4.50;;;1.80;;
20832;SDS011;56075;51.264;7.150;2023-09-18T09:32:32;4.03;;;1.60;;
20832;SDS011;56075;51.264;7.150;2023-09-18T09:35:04;3.30;;;1.70;;
20832;SDS011;56075;51.264;7.150;2023-09-18T09:37:38;4.35;;;1.52;;
20832;SDS011;56075;51.264;7.150;2023-09-18T09:40:11;3.83;;;1.55;;
20832;SDS011;56075;51.264;7.150;2023-09-18T09:42:46;2.60;;;1.40;;
20832;SDS011;56075;51.264;7.150;2023-09-18T09:45:17;4.03;;;1.58;;
20832;SDS011;56075;51.264;7.150;2023-09-18T09:47:52;9.27;;;1.63;;
20832;SDS011;56075;51.264;7.150;2023-09-18T09:50:24;3.80;;;1.40;;
20832;SDS011;56075;51.264;7.150;2023-09-18T09:52:56;4.47;;;1.40;;
20832;SDS011;56075;51.264;7.150;2023-09-18T09:58:00;5.68;;;1.33;;
20832;SDS011;56075;51.264;7.150;2023-09-18T10:00:34;3.92;;;1.40;;
20832;SDS011;56075;51.264;7.150;2023-09-18T10:03:20;4.18;;;1.60;;
20832;SDS011;56075;51.264;7.150;2023-09-18T10:05:52;4.78;;;1.77;;
20832;SDS011;56075;51.264;7.150;2023-09-18T10:08:25;4.85;;;1.50;;
20832;SDS011;56075;51.264;7.150;2023-09-18T10:11:04;3.22;;;1.23;;
20832;SDS011;56075;51.264;7.150;2023-09-18T10:13:53;4.63;;;1.48;;
20832;SDS011;56075;51.264;7.150;2023-09-18T10:16:33;2.45;;;1.30;;
20832;SDS011;56075;51.264;7.150;2023-09-18T10:24:50;3.67;;;1.42;;
20832;SDS011;56075;51.264;7.150;2023-09-18T10:27:25;4.13;;;1.48;;
20832;SDS011;56075;51.264;7.150;2023-09-18T10:29:59;3.58;;;1.27;;
20832;SDS011;56075;51.264;7.150;2023-09-18T10:32:37;3.60;;;1.20;;
20832;SDS011;56075;51.264;7.150;2023-09-18T10:35:10;2.75;;;1.40;;
20832;SDS011;56075;51.264;7.150;2023-09-18T10:37:42;4.72;;;1.20;;
20832;SDS011;56075;51.264;7.150;2023-09-18T10:40:14;4.63;;;1.40;;
20832;SDS011;56075;51.264;7.150;2023-09-18T10:42:47;5.88;;;1.40;;
20832;SDS011;56075;51.264;7.150;2023-09-18T10:45:21;4.20;;;1.60;;
20832;SDS011;56075;51.264;7.150;2023-09-18T10:47:52;4.00;;;1.38;;
20832;SDS011;56075;51.264;7.150;2023-09-18T10:50:26;2.75;;;1.30;;
20832;SDS011;56075;51.264;7.150;2023-09-18T10:52:58;4.22;;;0.98;;
20832;SDS011;56075;51.264;7.150;2023-09-18T10:55:29;4.03;;;1.27;;
20832;SDS011;56075;51.264;7.150;2023-09-18T10:58:03;4.07;;;1.50;;
20832;SDS011;56075;51.264;7.150;2023-09-18T11:00:35;4.43;;;1.55;;
20832;SDS011;56075;51.264;7.150;2023-09-18T11:03:14;2.88;;;1.45;;
20832;SDS011;56075;51.264;7.150;2023-09-18T11:06:01;6.85;;;1.30;;
20832;SDS011;56075;51.264;7.150;2023-09-18T11:08:35;3.63;;;1.50;;
20832;SDS011;56075;51.264;7.150;2023-09-18T11:11:14;2.92;;;1.30;;
20832;SDS011;56075;51.264;7.150;2023-09-18T11:13:51;5.97;;;1.48;;
20832;SDS011;56075;51.264;7.150;2023-09-18T11:21:30;4.70;;;1.50;;
20832;SDS011;56075;51.264;7.150;2023-09-18T11:24:06;4.00;;;1.30;;
20832;SDS011;56075;51.264;7.150;2023-09-18T11:26:49;2.50;;;1.50;;
20832;SDS011;56075;51.264;7.150;2023-09-18T11:29:22;2.60;;;1.40;;
20832;SDS011;56075;51.264;7.150;2023-09-18T11:31:57;2.08;;;1.20;;
20832;SDS011;56075;51.264;7.150;2023-09-18T11:34:29;4.20;;;1.20;;
20832;SDS011;56075;51.264;7.150;2023-09-18T11:37:19;3.85;;;1.30;;
20832;SDS011;56075;51.264;7.150;2023-09-18T11:39:51;3.95;;;1.33;;
20832;SDS011;56075;51.264;7.150;2023-09-18T11:42:22;1.98;;;1.20;;
20832;SDS011;56075;51.264;7.150;2023-09-18T11:44:57;3.60;;;1.40;;
20832;SDS011;56075;51.264;7.150;2023-09-18T11:47:29;4.18;;;1.20;;
20832;SDS011;56075;51.264;7.150;2023-09-18T11:50:03;3.67;;;1.10;;
20832;SDS011;56075;51.264;7.150;2023-09-18T11:52:36;2.08;;;1.20;;
20832;SDS011;56075;51.264;7.150;2023-09-18T11:55:08;4.60;;;1.30;;
20832;SDS011;56075;51.264;7.150;2023-09-18T11:57:39;4.32;;;1.20;;
20832;SDS011;56075;51.264;7.150;2023-09-18T12:00:19;2.30;;;1.27;;
20832;SDS011;56075;51.264;7.150;2023-09-18T12:02:56;6.88;;;1.20;;
20832;SDS011;56075;51.264;7.150;2023-09-18T12:05:28;4.47;;;1.25;;
20832;SDS011;56075;51.264;7.150;2023-09-18T12:07:59;2.67;;;1.10;;
20832;SDS011;56075;51.264;7.150;2023-09-18T12:10:31;4.47;;;1.15;;
20832;SDS011;56075;51.264;7.150;2023-09-18T12:13:05;2.60;;;1.30;;
20832;SDS011;56075;51.264;7.150;2023-09-18T12:15:41;6.10;;;1.33;;
20832;SDS011;56075;51.264;7.150;2023-09-18T12:18:14;2.42;;;1.40;;
20832;SDS011;56075;51.264;7.150;2023-09-18T12:20:46;7.05;;;1.40;;
20832;SDS011;56075;51.264;7.150;2023-09-18T12:23:18;6.03;;;1.30;;
20832;SDS011;56075;51.264;7.150;2023-09-18T12:25:50;2.85;;;1.15;;
20832;SDS011;56075;51.264;7.150;2023-09-18T12:28:31;3.53;;;1.45;;
20832;SDS011;56075;51.264;7.150;2023-09-18T12:31:03;3.10;;;1.33;;
20832;SDS011;56075;51.264;7.150;2023-09-18T12:33:38;2.80;;;1.38;;
20832;SDS011;56075;51.264;7.150;2023-09-18T12:36:10;6.57;;;1.42;;
20832;SDS011;56075;51.264;7.150;2023-09-18T12:38:54;3.22;;;1.58;;
20832;SDS011;56075;51.264;7.150;2023-09-18T12:41:31;3.85;;;1.50;;
20832;SDS011;56075;51.264;7.150;2023-09-18T12:44:03;5.70;;;1.27;;
20832;SDS011;56075;51.264;7.150;2023-09-18T12:46:36;3.60;;;1.20;;
20832;SDS011;56075;51.264;7.150;2023-09-18T12:49:15;1.88;;;1.15;;
20832;SDS011;56075;51.264;7.150;2023-09-18T12:51:54;5.28;;;1.35;;
20832;SDS011;56075;51.264;7.150;2023-09-18T12:54:43;4.10;;;1.27;;
20832;SDS011;56075;51.264;7.150;2023-09-18T12:57:25;7.18;;;1.27;;
20832;SDS011;56075;51.264;7.150;2023-09-18T12:59:56;6.55;;;1.25;;
20832;SDS011;56075;51.264;7.150;2023-09-18T13:02:27;4.00;;;1.40;;
20832;SDS011;56075;51.264;7.150;2023-09-18T13:04:59;3.35;;;1.27;;
20832;SDS011;56075;51.264;7.150;2023-09-18T13:07:30;4.88;;;1.30;;
20832;SDS011;56075;51.264;7.150;2023-09-18T13:10:05;2.95;;;1.20;;
20832;SDS011;56075;51.264;7.150;2023-09-18T13:12:47;1.65;;;1.17;;
20832;SDS011;56075;51.264;7.150;2023-09-18T13:15:25;2.75;;;1.27;;
20832;SDS011;56075;51.264;7.150;2023-09-18T13:17:58;2.80;;;1.13;;
20832;SDS011;56075;51.264;7.150;2023-09-18T13:20:40;2.75;;;1.40;;
20832;SDS011;56075;51.264;7.150;2023-09-18T13:23:11;4.43;;;1.40;;
20832;SDS011;56075;51.264;7.150;2023-09-18T13:25:43;2.25;;;1.45;;
20832;SDS011;56075;51.264;7.150;2023-09-18T13:28:16;5.80;;;1.40;;
20832;SDS011;56075;51.264;7.150;2023-09-18T13:30:51;3.30;;;1.20;;
20832;SDS011;56075;51.264;7.150;2023-09-18T13:33:22;2.58;;;1.08;;
20832;SDS011;56075;51.264;7.150;2023-09-18T13:35:56;5.25;;;1.13;;
20832;SDS011;56075;51.264;7.150;2023-09-18T13:38:27;3.00;;;1.20;;
20832;SDS011;56075;51.264;7.150;2023-09-18T13:40:58;3.55;;;1.13;;
20832;SDS011;56075;51.264;7.150;2023-09-18T13:43:30;1.70;;;1.10;;
20832;SDS011;56075;51.264;7.150;2023-09-18T13:46:05;2.65;;;1.30;;
20832;SDS011;56075;51.264;7.150;2023-09-18T13:48:36;3.35;;;1.10;;
20832;SDS011;56075;51.264;7.150;2023-09-18T13:51:09;2.63;;;1.20;;
20832;SDS011;56075;51.264;7.150;2023-09-18T13:53:40;2.92;;;1.45;;
20832;SDS011;56075;51.264;7.150;2023-09-18T13:56:13;2.15;;;1.40;;
20832;SDS011;56075;51.264;7.150;2023-09-18T13:58:44;2.65;;;1.40;;
20832;SDS011;56075;51.264;7.150;2023-09-18T14:01:15;3.40;;;1.30;;
20832;SDS011;56075;51.264;7.150;2023-09-18T14:03:46;3.47;;;1.08;;
20832;SDS011;56075;51.264;7.150;2023-09-18T14:06:18;3.85;;;1.20;;
20832;SDS011;56075;51.264;7.150;2023-09-18T14:08:49;3.58;;;1.30;;
20832;SDS011;56075;51.264;7.150;2023-09-18T14:11:20;4.68;;;1.35;;
20832;SDS011;56075;51.264;7.150;2023-09-18T14:13:51;3.30;;;1.25;;
20832;SDS011;56075;51.264;7.150;2023-09-18T14:16:23;5.45;;;1.38;;
20832;SDS011;56075;51.264;7.150;2023-09-18T14:18:55;2.67;;;1.35;;
20832;SDS011;56075;51.264;7.150;2023-09-18T14:21:26;4.07;;;1.13;;
20832;SDS011;56075;51.264;7.150;2023-09-18T14:24:01;3.75;;;1.50;;
20832;SDS011;56075;51.264;7.150;2023-09-18T14:26:32;4.78;;;1.50;;
20832;SDS011;56075;51.264;7.150;2023-09-18T14:29:05;3.83;;;1.77;;
20832;SDS011;56075;51.264;7.150;2023-09-18T14:31:40;4.20;;;1.23;;
20832;SDS011;56075;51.264;7.150;2023-09-18T14:34:12;5.20;;;1.48;;
20832;SDS011;56075;51.264;7.150;2023-09-18T14:36:44;4.10;;;1.65;;
20832;SDS011;56075;51.264;7.150;2023-09-18T14:39:15;1.92;;;1.08;;
20832;SDS011;56075;51.264;7.150;2023-09-18T14:41:46;2.92;;;1.20;;
20832;SDS011;56075;51.264;7.150;2023-09-18T14:44:18;3.08;;;1.52;;
20832;SDS011;56075;51.264;7.150;2023-09-18T14:46:49;3.20;;;1.40;;
20832;SDS011;56075;51.264;7.150;2023-09-18T14:49:21;2.10;;;1.20;;
20832;SDS011;56075;51.264;7.150;2023-09-18T14:51:52;3.83;;;1.50;;
20832;SDS011;56075;51.264;7.150;2023-09-18T14:54:24;3.92;;;1.40;;
20832;SDS011;56075;51.264;7.150;2023-09-18T14:56:56;3.67;;;1.20;;
20832;SDS011;56075;51.264;7.150;2023-09-18T14:59:28;5.53;;;1.30;;
20832;SDS011;56075;51.264;7.150;2023-09-18T15:01:59;3.75;;;1.50;;
20832;SDS011;56075;51.264;7.150;2023-09-18T15:04:31;4.90;;;1.40;;
20832;SDS011;56075;51.264;7.150;2023-09-18T15:07:04;5.10;;;1.48;;
20832;SDS011;56075;51.264;7.150;2023-09-18T15:09:35;2.25;;;1.17;;
20832;SDS011;56075;51.264;7.150;2023-09-18T15:12:06;5.28;;;1.27;;
20832;SDS011;56075;51.264;7.150;2023-09-18T15:14:38;3.85;;;1.42;;
20832;SDS011;56075;51.264;7.150;2023-09-18T15:17:10;6.07;;;1.40;;
20832;SDS011;56075;51.264;7.150;2023-09-18T15:19:42;4.25;;;1.30;;
20832;SDS011;56075;51.264;7.150;2023-09-18T15:22:13;2.90;;;1.20;;
20832;SDS011;56075;51.264;7.150;2023-09-18T15:24:44;4.18;;;1.30;;
20832;SDS011;56075;51.264;7.150;2023-09-18T15:27:16;3.75;;;1.20;;
20832;SDS011;56075;51.264;7.150;2023-09-18T15:29:48;5.43;;;1.20;;
20832;SDS011;56075;51.264;7.150;2023-09-18T15:32:19;4.75;;;1.55;;
20832;SDS011;56075;51.264;7.150;2023-09-18T15:34:52;2.20;;;1.33;;
20832;SDS011;56075;51.264;7.150;2023-09-18T15:37:23;3.35;;;1.13;;
20832;SDS011;56075;51.264;7.150;2023-09-18T15:39:54;1.80;;;1.15;;
20832;SDS011;56075;51.264;7.150;2023-09-18T15:42:26;8.02;;;1.33;;
20832;SDS011;56075;51.264;7.150;2023-09-18T15:44:57;3.78;;;1.50;;
20832;SDS011;56075;51.264;7.150;2023-09-18T15:47:28;2.65;;;1.15;;
20832;SDS011;56075;51.264;7.150;2023-09-18T15:50:00;2.70;;;1.10;;
20832;SDS011;56075;51.264;7.150;2023-09-18T15:52:31;4.07;;;1.58;;
20832;SDS011;56075;51.264;7.150;2023-09-18T15:55:03;3.95;;;1.60;;
20832;SDS011;56075;51.264;7.150;2023-09-18T15:57:36;3.88;;;1.42;;
20832;SDS011;56075;51.264;7.150;2023-09-18T16:00:15;2.55;;;1.25;;
20832;SDS011;56075;51.264;7.150;2023-09-18T16:02:48;2.95;;;1.45;;
20832;SDS011;56075;51.264;7.150;2023-09-18T16:05:21;5.40;;;1.92;;
20832;SDS011;56075;51.264;7.150;2023-09-18T16:07:56;4.45;;;1.50;;
20832;SDS011;56075;51.264;7.150;2023-09-18T16:10:30;5.10;;;1.40;;
20832;SDS011;56075;51.264;7.150;2023-09-18T16:13:02;4.55;;;1.60;;
20832;SDS011;56075;51.264;7.150;2023-09-18T16:15:34;5.95;;;2.38;;
20832;SDS011;56075;51.264;7.150;2023-09-18T16:18:05;3.95;;;1.70;;
20832;SDS011;56075;51.264;7.150;2023-09-18T16:20:37;3.13;;;1.50;;
20832;SDS011;56075;51.264;7.150;2023-09-18T16:23:08;3.03;;;1.67;;
20832;SDS011;56075;51.264;7.150;2023-09-18T16:25:40;4.95;;;1.67;;
20832;SDS011;56075;51.264;7.150;2023-09-18T16:28:11;7.38;;;2.05;;
20832;SDS011;56075;51.264;7.150;2023-09-18T16:30:42;4.97;;;2.70;;
20832;SDS011;56075;51.264;7.150;2023-09-18T16:33:16;11.73;;;4.97;;
20832;SDS011;56075;51.264;7.150;2023-09-18T16:35:47;5.93;;;2.65;;
20832;SDS011;56075;51.264;7.150;2023-09-18T16:38:20;10.48;;;4.10;;
20832;SDS011;56075;51.264;7.150;2023-09-18T16:40:51;4.65;;;1.90;;
20832;SDS011;56075;51.264;7.150;2023-09-18T16:43:23;3.47;;;1.55;;
20832;SDS011;56075;51.264;7.150;2023-09-18T16:45:54;4.65;;;1.65;;
20832;SDS011;56075;51.264;7.150;2023-09-18T16:48:26;8.73;;;2.95;;
20832;SDS011;56075;51.264;7.150;2023-09-18T16:50:58;4.65;;;1.60;;
20832;SDS011;56075;51.264;7.150;2023-09-18T16:53:30;4.07;;;1.48;;
20832;SDS011;56075;51.264;7.150;2023-09-18T16:56:05;5.07;;;1.50;;
20832;SDS011;56075;51.264;7.150;2023-09-18T16:58:36;4.53;;;1.83;;
20832;SDS011;56075;51.264;7.150;2023-09-18T17:01:08;3.95;;;1.80;;
20832;SDS011;56075;51.264;7.150;2023-09-18T17:03:39;4.97;;;1.60;;
20832;SDS011;56075;51.264;7.150;2023-09-18T17:06:10;6.75;;;1.77;;
20832;SDS011;56075;51.264;7.150;2023-09-18T17:08:42;4.28;;;1.70;;
20832;SDS011;56075;51.264;7.150;2023-09-18T17:11:13;3.58;;;1.45;;
20832;SDS011;56075;51.264;7.150;2023-09-18T17:13:45;2.95;;;1.40;;
20832;SDS011;56075;51.264;7.150;2023-09-18T17:16:17;3.78;;;2.05;;
20832;SDS011;56075;51.264;7.150;2023-09-18T17:18:50;4.18;;;1.80;;
20832;SDS011;56075;51.264;7.150;2023-09-18T17:21:26;5.22;;;1.73;;
20832;SDS011;56075;51.264;7.150;2023-09-18T17:23:58;4.63;;;1.70;;
20832;SDS011;56075;51.264;7.150;2023-09-18T17:26:29;3.55;;;1.50;;
20832;SDS011;56075;51.264;7.150;2023-09-18T17:29:00;3.80;;;1.67;;
20832;SDS011;56075;51.264;7.150;2023-09-18T17:31:33;4.40;;;1.50;;
20832;SDS011;56075;51.264;7.150;2023-09-18T17:34:04;5.18;;;2.53;;
20832;SDS011;56075;51.264;7.150;2023-09-18T17:36:36;4.72;;;1.80;;
20832;SDS011;56075;51.264;7.150;2023-09-18T17:39:07;4.70;;;1.70;;
20832;SDS011;56075;51.264;7.150;2023-09-18T17:41:40;3.42;;;1.58;;
20832;SDS011;56075;51.264;7.150;2023-09-18T17:44:12;4.63;;;1.70;;
20832;SDS011;56075;51.264;7.150;2023-09-18T17:46:44;5.32;;;1.80;;
20832;SDS011;56075;51.264;7.150;2023-09-18T17:49:16;4.38;;;1.90;;
20832;SDS011;56075;51.264;7.150;2023-09-18T17:51:48;2.75;;;1.65;;
20832;SDS011;56075;51.264;7.150;2023-09-18T17:54:19;4.78;;;1.80;;
20832;SDS011;56075;51.264;7.150;2023-09-18T17:56:51;4.20;;;1.90;;
20832;SDS011;56075;51.264;7.150;2023-09-18T17:59:23;5.00;;;2.47;;
20832;SDS011;56075;51.264;7.150;2023-09-18T18:01:54;7.18;;;2.28;;
20832;SDS011;56075;51.264;7.150;2023-09-18T18:04:26;6.05;;;2.03;;
20832;SDS011;56075;51.264;7.150;2023-09-18T18:06:57;10.15;;;2.40;;
20832;SDS011;56075;51.264;7.150;2023-09-18T18:09:29;9.88;;;2.80;;
20832;SDS011;56075;51.264;7.150;2023-09-18T18:12:00;6.57;;;1.52;;
20832;SDS011;56075;51.264;7.150;2023-09-18T18:14:31;5.68;;;1.10;;
20832;SDS011;56075;51.264;7.150;2023-09-18T18:17:05;5.57;;;1.00;;
20832;SDS011;56075;51.264;7.150;2023-09-18T18:19:36;5.68;;;1.30;;
20832;SDS011;56075;51.264;7.150;2023-09-18T18:22:07;13.23;;;1.70;;
20832;SDS011;56075;51.264;7.150;2023-09-18T18:24:39;4.85;;;1.42;;
20832;SDS011;56075;51.264;7.150;2023-09-18T18:27:10;5.13;;;1.45;;
20832;SDS011;56075;51.264;7.150;2023-09-18T18:29:42;3.20;;;1.30;;
20832;SDS011;56075;51.264;7.150;2023-09-18T18:32:13;7.15;;;1.20;;
20832;SDS011;56075;51.264;7.150;2023-09-18T18:34:45;4.90;;;1.08;;
20832;SDS011;56075;51.264;7.150;2023-09-18T18:37:16;4.63;;;1.60;;
20832;SDS011;56075;51.264;7.150;2023-09-18T18:39:47;4.10;;;1.40;;
20832;SDS011;56075;51.264;7.150;2023-09-18T18:42:19;5.90;;;1.75;;
20832;SDS011;56075;51.264;7.150;2023-09-18T18:44:50;7.70;;;1.85;;
20832;SDS011;56075;51.264;7.150;2023-09-18T18:47:23;7.95;;;1.92;;
20832;SDS011;56075;51.264;7.150;2023-09-18T18:49:54;6.40;;;1.90;;
20832;SDS011;56075;51.264;7.150;2023-09-18T18:52:26;11.82;;;2.40;;
20832;SDS011;56075;51.264;7.150;2023-09-18T18:54:57;9.40;;;2.03;;
20832;SDS011;56075;51.264;7.150;2023-09-18T18:57:28;7.75;;;1.90;;
20832;SDS011;56075;51.264;7.150;2023-09-18T18:59:59;6.15;;;2.10;;
20832;SDS011;56075;51.264;7.150;2023-09-18T19:02:33;8.55;;;1.80;;